sensor_id;sensor_type;location;lat;lon;timestamp;P1;durP1;ratioP1;P2;durP2;ratioP2
8675;SDS011;4375;52.486;13.424;2022-08-21T00:01:43;19.47;;;6.13;;
8675;SDS011;4375;52.486;13.424;2022-08-21T00:04:09;19.87;;;6.07;;
8675;SDS011;4375;52.486;13.424;2022-08-21T00:06:36;19.23;;;6.33;;
8675;SDS011;4375;52.486;13.424;2022-08-21T00:09:03;21.77;;;6.37;;
8675;SDS011;4375;52.486;13.424;2022-08-21T00:11:31;18.73;;;5.57;;
8675;SDS011;4375;52.486;13.424;2022-08-21T00:13:57;19.57;;;5.80;;
8675;SDS011;4375;52.486;13.424;2022-08-21T00:16:22;19.50;;;5.60;;
8675;SDS011;4375;52.486;13.424;2022-08-21T00:18:49;21.23;;;6.20;;
8675;SDS011;4375;52.486;13.424;2022-08-21T00:21:15;20.37;;;5.50;;
8675;SDS011;4375;52.486;13.424;2022-08-21T00:23:41;17.23;;;5.10;;
8675;SDS011;4375;52.486;13.424;2022-08-21T00:26:07;19.60;;;5.40;;
8675;SDS011;4375;52.486;13.424;2022-08-21T00:28:34;19.93;;;6.07;;
8675;SDS011;4375;52.486;13.424;2022-08-21T00:31:00;18.60;;;5.10;;
8675;SDS011;4375;52.486;13.424;2022-08-21T00:33:29;17.80;;;4.90;;
8675;SDS011;4375;52.486;13.424;2022-08-21T00:35:56;19.80;;;5.87;;
8675;SDS011;4375;52.486;13.424;2022-08-21T00:38:21;20.73;;;5.97;;
8675;SDS011;4375;52.486;13.424;2022-08-21T00:40:49;21.90;;;5.97;;
8675;SDS011;4375;52.486;13.424;2022-08-21T00:43:20;19.50;;;5.70;;
8675;SDS011;4375;52.486;13.424;2022-08-21T00:45:48;20.83;;;5.50;;
8675;SDS011;4375;52.486;13.424;2022-08-21T00:48:14;20.30;;;5.90;;
8675;SDS011;4375;52.486;13.424;2022-08-21T00:50:42;18.07;;;5.10;;
8675;SDS011;4375;52.486;13.424;2022-08-21T00:53:11;21.50;;;5.20;;
8675;SDS011;4375;52.486;13.424;2022-08-21T00:55:37;17.50;;;5.07;;
8675;SDS011;4375;52.486;13.424;2022-08-21T00:58:03;18.07;;;5.10;;
8675;SDS011;4375;52.486;13.424;2022-08-21T01:00:34;18.40;;;5.03;;
8675;SDS011;4375;52.486;13.424;2022-08-21T01:03:05;21.53;;;5.70;;
8675;SDS011;4375;52.486;13.424;2022-08-21T01:05:33;18.80;;;5.87;;
8675;SDS011;4375;52.486;13.424;2022-08-21T01:07:59;20.87;;;5.90;;
8675;SDS011;4375;52.486;13.424;2022-08-21T01:10:25;17.67;;;4.87;;
8675;SDS011;4375;52.486;13.424;2022-08-21T01:12:54;22.00;;;5.20;;
8675;SDS011;4375;52.486;13.424;2022-08-21T01:15:22;19.43;;;6.20;;
8675;SDS011;4375;52.486;13.424;2022-08-21T01:17:51;21.50;;;5.90;;
8675;SDS011;4375;52.486;13.424;2022-08-21T01:20:17;19.47;;;5.77;;
8675;SDS011;4375;52.486;13.424;2022-08-21T01:22:43;20.33;;;5.53;;
8675;SDS011;4375;52.486;13.424;2022-08-21T01:25:09;19.10;;;4.87;;
8675;SDS011;4375;52.486;13.424;2022-08-21T01:27:35;22.70;;;6.00;;
8675;SDS011;4375;52.486;13.424;2022-08-21T01:30:07;21.30;;;5.53;;
8675;SDS011;4375;52.486;13.424;2022-08-21T01:32:35;21.90;;;6.17;;
8675;SDS011;4375;52.486;13.424;2022-08-21T01:35:02;19.40;;;5.80;;
8675;SDS011;4375;52.486;13.424;2022-08-21T01:37:29;18.80;;;5.23;;
8675;SDS011;4375;52.486;13.424;2022-08-21T01:39:54;18.87;;;5.63;;
8675;SDS011;4375;52.486;13.424;2022-08-21T01:42:20;23.90;;;6.40;;
8675;SDS011;4375;52.486;13.424;2022-08-21T01:44:46;19.83;;;5.90;;
8675;SDS011;4375;52.486;13.424;2022-08-21T01:47:13;18.83;;;5.30;;
8675;SDS011;4375;52.486;13.424;2022-08-21T01:49:40;18.20;;;4.97;;
8675;SDS011;4375;52.486;13.424;2022-08-21T01:52:06;20.80;;;5.57;;
8675;SDS011;4375;52.486;13.424;2022-08-21T01:54:33;19.60;;;5.10;;
8675;SDS011;4375;52.486;13.424;2022-08-21T01:56:59;22.90;;;5.30;;
8675;SDS011;4375;52.486;13.424;2022-08-21T01:59:25;16.97;;;4.57;;
8675;SDS011;4375;52.486;13.424;2022-08-21T02:01:51;20.87;;;5.63;;
8675;SDS011;4375;52.486;13.424;2022-08-21T02:04:19;20.20;;;4.33;;
8675;SDS011;4375;52.486;13.424;2022-08-21T02:06:45;16.93;;;4.03;;
8675;SDS011;4375;52.486;13.424;2022-08-21T02:09:11;21.00;;;4.57;;
8675;SDS011;4375;52.486;13.424;2022-08-21T02:11:39;21.43;;;4.60;;
8675;SDS011;4375;52.486;13.424;2022-08-21T02:14:06;17.37;;;4.17;;
8675;SDS011;4375;52.486;13.424;2022-08-21T02:16:32;18.83;;;4.27;;
8675;SDS011;4375;52.486;13.424;2022-08-21T02:18:58;22.33;;;4.30;;
8675;SDS011;4375;52.486;13.424;2022-08-21T02:21:24;17.97;;;4.53;;
8675;SDS011;4375;52.486;13.424;2022-08-21T02:23:50;18.97;;;4.83;;
8675;SDS011;4375;52.486;13.424;2022-08-21T02:26:16;22.87;;;4.30;;
8675;SDS011;4375;52.486;13.424;2022-08-21T02:28:42;19.20;;;3.67;;
8675;SDS011;4375;52.486;13.424;2022-08-21T02:31:07;18.67;;;4.17;;
8675;SDS011;4375;52.486;13.424;2022-08-21T02:33:33;17.50;;;4.60;;
8675;SDS011;4375;52.486;13.424;2022-08-21T02:35:59;20.13;;;4.50;;
8675;SDS011;4375;52.486;13.424;2022-08-21T02:38:26;17.07;;;4.03;;
8675;SDS011;4375;52.486;13.424;2022-08-21T02:40:54;18.57;;;3.70;;
8675;SDS011;4375;52.486;13.424;2022-08-21T02:43:22;18.37;;;4.20;;
8675;SDS011;4375;52.486;13.424;2022-08-21T02:45:49;16.63;;;4.30;;
8675;SDS011;4375;52.486;13.424;2022-08-21T02:48:17;19.93;;;4.90;;
8675;SDS011;4375;52.486;13.424;2022-08-21T02:50:46;20.47;;;4.07;;
8675;SDS011;4375;52.486;13.424;2022-08-21T02:53:16;18.17;;;3.73;;
8675;SDS011;4375;52.486;13.424;2022-08-21T02:55:42;17.13;;;3.57;;
8675;SDS011;4375;52.486;13.424;2022-08-21T02:58:10;20.33;;;3.70;;
8675;SDS011;4375;52.486;13.424;2022-08-21T03:00:37;18.53;;;3.73;;
8675;SDS011;4375;52.486;13.424;2022-08-21T03:03:04;16.80;;;3.80;;
8675;SDS011;4375;52.486;13.424;2022-08-21T03:05:31;17.70;;;3.83;;
8675;SDS011;4375;52.486;13.424;2022-08-21T03:07:59;19.50;;;4.10;;
8675;SDS011;4375;52.486;13.424;2022-08-21T03:10:26;17.83;;;3.57;;
8675;SDS011;4375;52.486;13.424;2022-08-21T03:12:53;18.57;;;3.30;;
8675;SDS011;4375;52.486;13.424;2022-08-21T03:15:20;19.27;;;4.00;;
8675;SDS011;4375;52.486;13.424;2022-08-21T03:17:49;15.77;;;3.40;;
8675;SDS011;4375;52.486;13.424;2022-08-21T03:20:16;18.07;;;3.97;;
8675;SDS011;4375;52.486;13.424;2022-08-21T03:22:48;15.63;;;3.27;;
8675;SDS011;4375;52.486;13.424;2022-08-21T03:25:15;19.40;;;3.50;;
8675;SDS011;4375;52.486;13.424;2022-08-21T03:27:42;16.57;;;3.47;;
8675;SDS011;4375;52.486;13.424;2022-08-21T03:30:07;17.40;;;3.63;;
8675;SDS011;4375;52.486;13.424;2022-08-21T03:32:34;17.03;;;3.20;;
8675;SDS011;4375;52.486;13.424;2022-08-21T03:35:01;20.20;;;4.13;;
8675;SDS011;4375;52.486;13.424;2022-08-21T03:37:27;17.80;;;3.80;;
8675;SDS011;4375;52.486;13.424;2022-08-21T03:39:53;17.03;;;3.60;;
8675;SDS011;4375;52.486;13.424;2022-08-21T03:42:19;21.67;;;3.90;;
8675;SDS011;4375;52.486;13.424;2022-08-21T03:44:45;17.53;;;3.47;;
8675;SDS011;4375;52.486;13.424;2022-08-21T03:47:11;21.73;;;4.00;;
8675;SDS011;4375;52.486;13.424;2022-08-21T03:49:37;18.73;;;3.60;;
8675;SDS011;4375;52.486;13.424;2022-08-21T03:52:03;18.37;;;3.90;;
8675;SDS011;4375;52.486;13.424;2022-08-21T03:54:29;20.57;;;3.40;;
8675;SDS011;4375;52.486;13.424;2022-08-21T03:56:55;18.07;;;3.63;;
8675;SDS011;4375;52.486;13.424;2022-08-21T03:59:22;20.57;;;3.70;;
8675;SDS011;4375;52.486;13.424;2022-08-21T04:01:55;20.93;;;3.70;;
8675;SDS011;4375;52.486;13.424;2022-08-21T04:04:24;19.03;;;3.33;;
8675;SDS011;4375;52.486;13.424;2022-08-21T04:06:51;19.67;;;4.00;;
8675;SDS011;4375;52.486;13.424;2022-08-21T04:09:17;19.53;;;3.93;;
8675;SDS011;4375;52.486;13.424;2022-08-21T04:11:43;17.77;;;3.63;;
8675;SDS011;4375;52.486;13.424;2022-08-21T04:14:10;19.70;;;3.40;;
8675;SDS011;4375;52.486;13.424;2022-08-21T04:16:37;19.20;;;4.30;;
8675;SDS011;4375;52.486;13.424;2022-08-21T04:19:03;17.63;;;3.90;;
8675;SDS011;4375;52.486;13.424;2022-08-21T04:21:29;18.63;;;4.03;;
8675;SDS011;4375;52.486;13.424;2022-08-21T04:23:56;22.73;;;3.60;;
8675;SDS011;4375;52.486;13.424;2022-08-21T04:26:22;21.10;;;3.50;;
8675;SDS011;4375;52.486;13.424;2022-08-21T04:28:48;20.97;;;3.70;;
8675;SDS011;4375;52.486;13.424;2022-08-21T04:31:13;19.70;;;3.70;;
8675;SDS011;4375;52.486;13.424;2022-08-21T04:33:39;23.63;;;3.80;;
8675;SDS011;4375;52.486;13.424;2022-08-21T04:36:05;16.70;;;3.10;;
8675;SDS011;4375;52.486;13.424;2022-08-21T04:38:31;21.40;;;4.10;;
8675;SDS011;4375;52.486;13.424;2022-08-21T04:40:57;17.43;;;3.63;;
8675;SDS011;4375;52.486;13.424;2022-08-21T04:43:26;20.23;;;3.43;;
8675;SDS011;4375;52.486;13.424;2022-08-21T04:45:53;19.73;;;3.60;;
8675;SDS011;4375;52.486;13.424;2022-08-21T04:48:20;18.17;;;3.57;;
8675;SDS011;4375;52.486;13.424;2022-08-21T04:56:09;20.20;;;3.40;;
8675;SDS011;4375;52.486;13.424;2022-08-21T04:58:39;21.30;;;4.30;;
8675;SDS011;4375;52.486;13.424;2022-08-21T05:01:08;18.87;;;4.17;;
8675;SDS011;4375;52.486;13.424;2022-08-21T05:03:40;21.30;;;3.33;;
8675;SDS011;4375;52.486;13.424;2022-08-21T05:06:07;19.63;;;3.10;;
8675;SDS011;4375;52.486;13.424;2022-08-21T05:08:37;21.33;;;3.40;;
8675;SDS011;4375;52.486;13.424;2022-08-21T05:11:04;17.10;;;3.00;;
8675;SDS011;4375;52.486;13.424;2022-08-21T05:13:31;29.93;;;3.60;;
8675;SDS011;4375;52.486;13.424;2022-08-21T05:15:57;21.40;;;3.87;;
8675;SDS011;4375;52.486;13.424;2022-08-21T05:18:23;18.97;;;2.90;;
8675;SDS011;4375;52.486;13.424;2022-08-21T05:20:50;16.63;;;2.90;;
8675;SDS011;4375;52.486;13.424;2022-08-21T05:23:15;18.37;;;3.50;;
8675;SDS011;4375;52.486;13.424;2022-08-21T05:25:41;19.77;;;3.53;;
8675;SDS011;4375;52.486;13.424;2022-08-21T05:28:09;16.47;;;3.20;;
8675;SDS011;4375;52.486;13.424;2022-08-21T05:30:35;19.53;;;3.50;;
8675;SDS011;4375;52.486;13.424;2022-08-21T05:33:03;17.47;;;3.30;;
8675;SDS011;4375;52.486;13.424;2022-08-21T05:35:30;16.93;;;3.03;;
8675;SDS011;4375;52.486;13.424;2022-08-21T05:37:57;20.40;;;3.23;;
8675;SDS011;4375;52.486;13.424;2022-08-21T05:40:23;16.80;;;3.00;;
8675;SDS011;4375;52.486;13.424;2022-08-21T05:42:50;18.87;;;3.93;;
8675;SDS011;4375;52.486;13.424;2022-08-21T05:45:17;22.67;;;4.13;;
8675;SDS011;4375;52.486;13.424;2022-08-21T05:47:42;19.10;;;3.30;;
8675;SDS011;4375;52.486;13.424;2022-08-21T05:50:08;22.57;;;3.60;;
8675;SDS011;4375;52.486;13.424;2022-08-21T05:52:34;19.23;;;3.40;;
8675;SDS011;4375;52.486;13.424;2022-08-21T05:55:00;18.20;;;2.60;;
8675;SDS011;4375;52.486;13.424;2022-08-21T05:57:25;15.63;;;2.83;;
8675;SDS011;4375;52.486;13.424;2022-08-21T05:59:51;18.73;;;3.00;;
8675;SDS011;4375;52.486;13.424;2022-08-21T06:02:17;21.77;;;3.27;;
8675;SDS011;4375;52.486;13.424;2022-08-21T06:04:44;17.87;;;3.23;;
8675;SDS011;4375;52.486;13.424;2022-08-21T06:07:10;18.30;;;3.47;;
8675;SDS011;4375;52.486;13.424;2022-08-21T06:09:36;22.23;;;3.50;;
8675;SDS011;4375;52.486;13.424;2022-08-21T06:12:11;16.17;;;2.70;;
8675;SDS011;4375;52.486;13.424;2022-08-21T06:14:40;23.93;;;3.43;;
8675;SDS011;4375;52.486;13.424;2022-08-21T06:17:08;19.80;;;3.43;;
8675;SDS011;4375;52.486;13.424;2022-08-21T06:19:35;16.93;;;3.00;;
8675;SDS011;4375;52.486;13.424;2022-08-21T06:22:01;20.33;;;2.97;;
8675;SDS011;4375;52.486;13.424;2022-08-21T06:24:27;19.30;;;3.60;;
8675;SDS011;4375;52.486;13.424;2022-08-21T06:26:54;18.87;;;3.30;;
8675;SDS011;4375;52.486;13.424;2022-08-21T06:29:20;18.23;;;3.10;;
8675;SDS011;4375;52.486;13.424;2022-08-21T06:31:47;20.83;;;3.77;;
8675;SDS011;4375;52.486;13.424;2022-08-21T06:34:14;18.10;;;3.30;;
8675;SDS011;4375;52.486;13.424;2022-08-21T06:36:40;19.47;;;3.13;;
8675;SDS011;4375;52.486;13.424;2022-08-21T06:39:06;21.00;;;3.57;;
8675;SDS011;4375;52.486;13.424;2022-08-21T06:41:32;24.03;;;3.83;;
8675;SDS011;4375;52.486;13.424;2022-08-21T06:43:58;26.60;;;3.27;;
8675;SDS011;4375;52.486;13.424;2022-08-21T06:46:24;19.53;;;3.20;;
8675;SDS011;4375;52.486;13.424;2022-08-21T06:48:52;20.80;;;3.20;;
8675;SDS011;4375;52.486;13.424;2022-08-21T06:51:19;17.20;;;3.10;;
8675;SDS011;4375;52.486;13.424;2022-08-21T06:53:45;19.33;;;3.10;;
8675;SDS011;4375;52.486;13.424;2022-08-21T06:56:11;21.53;;;3.63;;
8675;SDS011;4375;52.486;13.424;2022-08-21T06:58:36;19.73;;;3.30;;
8675;SDS011;4375;52.486;13.424;2022-08-21T07:01:02;22.77;;;3.73;;
8675;SDS011;4375;52.486;13.424;2022-08-21T07:03:30;23.50;;;3.57;;
8675;SDS011;4375;52.486;13.424;2022-08-21T07:05:58;20.17;;;2.50;;
8675;SDS011;4375;52.486;13.424;2022-08-21T07:08:25;17.97;;;2.43;;
8675;SDS011;4375;52.486;13.424;2022-08-21T07:10:52;24.23;;;3.13;;
8675;SDS011;4375;52.486;13.424;2022-08-21T07:13:19;17.70;;;2.70;;
8675;SDS011;4375;52.486;13.424;2022-08-21T07:15:45;21.27;;;3.43;;
8675;SDS011;4375;52.486;13.424;2022-08-21T07:18:11;18.97;;;2.80;;
8675;SDS011;4375;52.486;13.424;2022-08-21T07:20:38;17.30;;;2.93;;
8675;SDS011;4375;52.486;13.424;2022-08-21T07:23:06;18.93;;;3.00;;
8675;SDS011;4375;52.486;13.424;2022-08-21T07:25:34;19.90;;;2.57;;
8675;SDS011;4375;52.486;13.424;2022-08-21T07:28:00;17.00;;;2.77;;
8675;SDS011;4375;52.486;13.424;2022-08-21T07:30:27;16.53;;;3.00;;
8675;SDS011;4375;52.486;13.424;2022-08-21T07:32:52;18.40;;;3.20;;
8675;SDS011;4375;52.486;13.424;2022-08-21T07:35:19;21.10;;;2.77;;
8675;SDS011;4375;52.486;13.424;2022-08-21T07:37:45;21.87;;;3.00;;
8675;SDS011;4375;52.486;13.424;2022-08-21T07:40:11;19.17;;;3.13;;
8675;SDS011;4375;52.486;13.424;2022-08-21T07:42:43;19.37;;;2.63;;
8675;SDS011;4375;52.486;13.424;2022-08-21T07:45:12;19.50;;;3.23;;
8675;SDS011;4375;52.486;13.424;2022-08-21T07:47:38;16.50;;;2.43;;
8675;SDS011;4375;52.486;13.424;2022-08-21T07:50:05;18.13;;;2.20;;
8675;SDS011;4375;52.486;13.424;2022-08-21T07:52:32;19.17;;;1.77;;
8675;SDS011;4375;52.486;13.424;2022-08-21T07:54:58;17.67;;;2.23;;
8675;SDS011;4375;52.486;13.424;2022-08-21T07:57:24;15.60;;;1.93;;
8675;SDS011;4375;52.486;13.424;2022-08-21T07:59:50;21.07;;;4.00;;
8675;SDS011;4375;52.486;13.424;2022-08-21T08:02:25;17.33;;;2.23;;
8675;SDS011;4375;52.486;13.424;2022-08-21T08:04:52;17.00;;;1.90;;
8675;SDS011;4375;52.486;13.424;2022-08-21T08:07:18;16.20;;;2.17;;
8675;SDS011;4375;52.486;13.424;2022-08-21T08:09:46;20.93;;;2.23;;
8675;SDS011;4375;52.486;13.424;2022-08-21T08:12:12;16.10;;;2.30;;
8675;SDS011;4375;52.486;13.424;2022-08-21T08:14:38;17.40;;;2.23;;
8675;SDS011;4375;52.486;13.424;2022-08-21T08:17:03;16.23;;;1.90;;
8675;SDS011;4375;52.486;13.424;2022-08-21T08:19:29;15.90;;;1.97;;
8675;SDS011;4375;52.486;13.424;2022-08-21T08:21:55;20.30;;;2.10;;
8675;SDS011;4375;52.486;13.424;2022-08-21T08:24:21;17.93;;;2.00;;
8675;SDS011;4375;52.486;13.424;2022-08-21T08:26:46;15.00;;;1.80;;
8675;SDS011;4375;52.486;13.424;2022-08-21T08:29:12;14.93;;;1.60;;
8675;SDS011;4375;52.486;13.424;2022-08-21T08:31:38;23.70;;;2.13;;
8675;SDS011;4375;52.486;13.424;2022-08-21T08:34:04;15.73;;;2.20;;
8675;SDS011;4375;52.486;13.424;2022-08-21T08:36:33;18.17;;;2.20;;
8675;SDS011;4375;52.486;13.424;2022-08-21T08:39:01;14.30;;;1.77;;
8675;SDS011;4375;52.486;13.424;2022-08-21T08:41:29;16.40;;;2.13;;
8675;SDS011;4375;52.486;13.424;2022-08-21T08:43:58;18.40;;;1.83;;
8675;SDS011;4375;52.486;13.424;2022-08-21T08:46:47;18.13;;;2.40;;
8675;SDS011;4375;52.486;13.424;2022-08-21T08:51:54;19.70;;;2.20;;
8675;SDS011;4375;52.486;13.424;2022-08-21T08:54:28;17.17;;;1.97;;
8675;SDS011;4375;52.486;13.424;2022-08-21T08:57:07;16.83;;;2.00;;
8675;SDS011;4375;52.486;13.424;2022-08-21T08:59:43;14.60;;;2.10;;
8675;SDS011;4375;52.486;13.424;2022-08-21T09:02:13;19.17;;;2.27;;
8675;SDS011;4375;52.486;13.424;2022-08-21T09:04:40;17.07;;;2.27;;
8675;SDS011;4375;52.486;13.424;2022-08-21T09:07:19;18.93;;;2.20;;
8675;SDS011;4375;52.486;13.424;2022-08-21T09:10:10;15.80;;;1.90;;
8675;SDS011;4375;52.486;13.424;2022-08-21T09:23:30;15.43;;;1.83;;
8675;SDS011;4375;52.486;13.424;2022-08-21T09:28:37;17.47;;;2.20;;
8675;SDS011;4375;52.486;13.424;2022-08-21T09:31:05;18.60;;;2.60;;
8675;SDS011;4375;52.486;13.424;2022-08-21T09:33:33;16.60;;;2.10;;
8675;SDS011;4375;52.486;13.424;2022-08-21T09:35:59;18.07;;;3.10;;
8675;SDS011;4375;52.486;13.424;2022-08-21T09:38:32;17.33;;;2.73;;
8675;SDS011;4375;52.486;13.424;2022-08-21T09:41:02;19.70;;;2.30;;
8675;SDS011;4375;52.486;13.424;2022-08-21T09:43:30;20.07;;;2.30;;
8675;SDS011;4375;52.486;13.424;2022-08-21T09:46:09;16.23;;;2.10;;
8675;SDS011;4375;52.486;13.424;2022-08-21T09:48:45;20.00;;;2.13;;
8675;SDS011;4375;52.486;13.424;2022-08-21T09:51:29;20.97;;;1.90;;
8675;SDS011;4375;52.486;13.424;2022-08-21T09:56:33;17.33;;;2.13;;
8675;SDS011;4375;52.486;13.424;2022-08-21T09:59:32;17.90;;;2.57;;
8675;SDS011;4375;52.486;13.424;2022-08-21T10:02:00;16.30;;;2.57;;
8675;SDS011;4375;52.486;13.424;2022-08-21T10:04:29;19.70;;;2.53;;
8675;SDS011;4375;52.486;13.424;2022-08-21T10:07:06;15.77;;;2.07;;
8675;SDS011;4375;52.486;13.424;2022-08-21T10:09:32;16.53;;;2.03;;
8675;SDS011;4375;52.486;13.424;2022-08-21T10:12:00;16.73;;;2.47;;
8675;SDS011;4375;52.486;13.424;2022-08-21T10:20:40;16.93;;;2.00;;
8675;SDS011;4375;52.486;13.424;2022-08-21T10:23:48;19.10;;;2.20;;
8675;SDS011;4375;52.486;13.424;2022-08-21T10:26:30;17.90;;;2.23;;
8675;SDS011;4375;52.486;13.424;2022-08-21T10:29:14;16.50;;;1.90;;
8675;SDS011;4375;52.486;13.424;2022-08-21T10:37:19;18.07;;;2.00;;
8675;SDS011;4375;52.486;13.424;2022-08-21T10:45:22;19.80;;;2.83;;
8675;SDS011;4375;52.486;13.424;2022-08-21T10:48:02;18.27;;;2.07;;
8675;SDS011;4375;52.486;13.424;2022-08-21T10:50:38;16.10;;;2.40;;
8675;SDS011;4375;52.486;13.424;2022-08-21T10:53:28;16.60;;;2.20;;
8675;SDS011;4375;52.486;13.424;2022-08-21T10:56:16;16.30;;;2.03;;
8675;SDS011;4375;52.486;13.424;2022-08-21T10:58:57;15.93;;;2.13;;
8675;SDS011;4375;52.486;13.424;2022-08-21T11:09:46;18.10;;;2.27;;
8675;SDS011;4375;52.486;13.424;2022-08-21T11:15:29;17.00;;;2.00;;
8675;SDS011;4375;52.486;13.424;2022-08-21T11:18:01;17.70;;;2.27;;
8675;SDS011;4375;52.486;13.424;2022-08-21T11:20:42;18.73;;;2.40;;
8675;SDS011;4375;52.486;13.424;2022-08-21T11:25:53;18.93;;;1.97;;
8675;SDS011;4375;52.486;13.424;2022-08-21T11:28:30;18.07;;;2.20;;
8675;SDS011;4375;52.486;13.424;2022-08-21T11:31:11;18.30;;;2.17;;
8675;SDS011;4375;52.486;13.424;2022-08-21T11:34:00;16.53;;;2.10;;
8675;SDS011;4375;52.486;13.424;2022-08-21T11:36:51;14.50;;;2.10;;
8675;SDS011;4375;52.486;13.424;2022-08-21T11:39:38;17.00;;;1.93;;
8675;SDS011;4375;52.486;13.424;2022-08-21T11:44:53;15.60;;;2.00;;
8675;SDS011;4375;52.486;13.424;2022-08-21T11:50:21;15.80;;;2.10;;
8675;SDS011;4375;52.486;13.424;2022-08-21T11:55:36;14.23;;;1.40;;
8675;SDS011;4375;52.486;13.424;2022-08-21T11:58:12;14.53;;;1.57;;
8675;SDS011;4375;52.486;13.424;2022-08-21T12:01:27;16.33;;;1.70;;
8675;SDS011;4375;52.486;13.424;2022-08-21T12:03:38;15.80;;;2.07;;
8675;SDS011;4375;52.486;13.424;2022-08-21T12:06:08;14.80;;;1.80;;
8675;SDS011;4375;52.486;13.424;2022-08-21T12:13:33;15.17;;;1.70;;
8675;SDS011;4375;52.486;13.424;2022-08-21T12:16:10;14.73;;;1.80;;
8675;SDS011;4375;52.486;13.424;2022-08-21T12:18:36;14.60;;;1.70;;
8675;SDS011;4375;52.486;13.424;2022-08-21T12:21:24;15.87;;;1.73;;
8675;SDS011;4375;52.486;13.424;2022-08-21T12:24:03;14.70;;;1.60;;
8675;SDS011;4375;52.486;13.424;2022-08-21T12:29:30;16.37;;;2.00;;
8675;SDS011;4375;52.486;13.424;2022-08-21T12:34:24;14.97;;;1.93;;
8675;SDS011;4375;52.486;13.424;2022-08-21T12:36:58;19.40;;;2.30;;
8675;SDS011;4375;52.486;13.424;2022-08-21T12:39:28;14.80;;;1.60;;
8675;SDS011;4375;52.486;13.424;2022-08-21T12:42:01;14.50;;;1.50;;
8675;SDS011;4375;52.486;13.424;2022-08-21T12:44:51;13.70;;;1.27;;
8675;SDS011;4375;52.486;13.424;2022-08-21T12:47:31;14.30;;;1.30;;
8675;SDS011;4375;52.486;13.424;2022-08-21T12:52:38;16.43;;;2.13;;
8675;SDS011;4375;52.486;13.424;2022-08-21T12:55:10;16.10;;;1.70;;
8675;SDS011;4375;52.486;13.424;2022-08-21T12:57:39;15.50;;;1.80;;
8675;SDS011;4375;52.486;13.424;2022-08-21T13:00:07;14.30;;;1.50;;
8675;SDS011;4375;52.486;13.424;2022-08-21T13:02:38;17.00;;;1.50;;
8675;SDS011;4375;52.486;13.424;2022-08-21T13:05:11;17.87;;;2.40;;
8675;SDS011;4375;52.486;13.424;2022-08-21T13:07:42;17.73;;;1.93;;
8675;SDS011;4375;52.486;13.424;2022-08-21T13:12:50;16.03;;;1.60;;
8675;SDS011;4375;52.486;13.424;2022-08-21T13:15:23;13.97;;;1.50;;
8675;SDS011;4375;52.486;13.424;2022-08-21T13:17:53;15.27;;;1.90;;
8675;SDS011;4375;52.486;13.424;2022-08-21T13:22:49;14.73;;;1.90;;
8675;SDS011;4375;52.486;13.424;2022-08-21T13:25:16;15.70;;;2.07;;
8675;SDS011;4375;52.486;13.424;2022-08-21T13:27:45;15.27;;;1.97;;
8675;SDS011;4375;52.486;13.424;2022-08-21T13:30:32;18.07;;;2.50;;
8675;SDS011;4375;52.486;13.424;2022-08-21T13:32:59;16.33;;;2.10;;
8675;SDS011;4375;52.486;13.424;2022-08-21T13:38:00;17.00;;;1.90;;
8675;SDS011;4375;52.486;13.424;2022-08-21T13:40:45;16.00;;;2.30;;
8675;SDS011;4375;52.486;13.424;2022-08-21T13:43:14;17.50;;;2.00;;
8675;SDS011;4375;52.486;13.424;2022-08-21T13:45:44;15.60;;;1.80;;
8675;SDS011;4375;52.486;13.424;2022-08-21T13:48:14;17.20;;;2.33;;
8675;SDS011;4375;52.486;13.424;2022-08-21T13:50:40;14.50;;;1.83;;
8675;SDS011;4375;52.486;13.424;2022-08-21T13:53:20;15.50;;;2.03;;
8675;SDS011;4375;52.486;13.424;2022-08-21T13:55:49;14.63;;;1.90;;
8675;SDS011;4375;52.486;13.424;2022-08-21T13:58:23;19.70;;;2.00;;
8675;SDS011;4375;52.486;13.424;2022-08-21T14:00:52;16.27;;;2.20;;
8675;SDS011;4375;52.486;13.424;2022-08-21T14:03:41;16.57;;;2.13;;
8675;SDS011;4375;52.486;13.424;2022-08-21T14:06:13;15.17;;;2.27;;
8675;SDS011;4375;52.486;13.424;2022-08-21T14:08:46;15.40;;;1.97;;
8675;SDS011;4375;52.486;13.424;2022-08-21T14:11:24;15.93;;;2.33;;
8675;SDS011;4375;52.486;13.424;2022-08-21T14:16:26;16.13;;;2.63;;
8675;SDS011;4375;52.486;13.424;2022-08-21T14:19:18;19.40;;;2.63;;
8675;SDS011;4375;52.486;13.424;2022-08-21T14:21:46;16.90;;;2.37;;
8675;SDS011;4375;52.486;13.424;2022-08-21T14:29:38;23.00;;;2.70;;
8675;SDS011;4375;52.486;13.424;2022-08-21T14:32:11;17.03;;;2.40;;
8675;SDS011;4375;52.486;13.424;2022-08-21T14:34:40;17.10;;;2.20;;
8675;SDS011;4375;52.486;13.424;2022-08-21T14:37:06;15.50;;;2.20;;
8675;SDS011;4375;52.486;13.424;2022-08-21T14:39:32;19.63;;;2.50;;
8675;SDS011;4375;52.486;13.424;2022-08-21T14:41:58;17.27;;;2.43;;
8675;SDS011;4375;52.486;13.424;2022-08-21T14:44:25;16.07;;;2.10;;
8675;SDS011;4375;52.486;13.424;2022-08-21T14:46:51;16.60;;;2.30;;
8675;SDS011;4375;52.486;13.424;2022-08-21T14:49:18;16.97;;;2.50;;
8675;SDS011;4375;52.486;13.424;2022-08-21T14:51:43;17.17;;;2.50;;
8675;SDS011;4375;52.486;13.424;2022-08-21T14:57:04;17.13;;;2.10;;
8675;SDS011;4375;52.486;13.424;2022-08-21T14:59:33;20.00;;;2.70;;
8675;SDS011;4375;52.486;13.424;2022-08-21T15:02:00;15.80;;;2.37;;
8675;SDS011;4375;52.486;13.424;2022-08-21T15:04:29;16.17;;;2.70;;
8675;SDS011;4375;52.486;13.424;2022-08-21T15:06:54;17.87;;;2.20;;
8675;SDS011;4375;52.486;13.424;2022-08-21T15:09:20;14.73;;;2.50;;
8675;SDS011;4375;52.486;13.424;2022-08-21T15:11:46;17.80;;;3.20;;
8675;SDS011;4375;52.486;13.424;2022-08-21T15:14:19;17.33;;;3.00;;
8675;SDS011;4375;52.486;13.424;2022-08-21T15:16:47;18.20;;;2.70;;
8675;SDS011;4375;52.486;13.424;2022-08-21T15:19:13;17.57;;;3.87;;
8675;SDS011;4375;52.486;13.424;2022-08-21T15:21:39;16.23;;;2.60;;
8675;SDS011;4375;52.486;13.424;2022-08-21T15:24:04;18.67;;;2.70;;
8675;SDS011;4375;52.486;13.424;2022-08-21T15:26:30;15.93;;;2.63;;
8675;SDS011;4375;52.486;13.424;2022-08-21T15:28:56;21.17;;;4.20;;
8675;SDS011;4375;52.486;13.424;2022-08-21T15:31:23;16.67;;;3.57;;
8675;SDS011;4375;52.486;13.424;2022-08-21T15:33:49;17.57;;;3.30;;
8675;SDS011;4375;52.486;13.424;2022-08-21T15:36:16;18.17;;;4.00;;
8675;SDS011;4375;52.486;13.424;2022-08-21T15:38:42;15.63;;;3.37;;
8675;SDS011;4375;52.486;13.424;2022-08-21T15:41:21;18.83;;;3.10;;
8675;SDS011;4375;52.486;13.424;2022-08-21T15:43:50;22.23;;;5.87;;
8675;SDS011;4375;52.486;13.424;2022-08-21T15:46:19;20.37;;;3.73;;
8675;SDS011;4375;52.486;13.424;2022-08-21T15:48:46;17.93;;;2.87;;
8675;SDS011;4375;52.486;13.424;2022-08-21T15:51:12;17.60;;;2.93;;
8675;SDS011;4375;52.486;13.424;2022-08-21T15:53:40;19.27;;;3.20;;
8675;SDS011;4375;52.486;13.424;2022-08-21T15:56:11;20.43;;;3.90;;
8675;SDS011;4375;52.486;13.424;2022-08-21T15:58:49;18.27;;;3.50;;
8675;SDS011;4375;52.486;13.424;2022-08-21T16:01:16;16.40;;;3.00;;
8675;SDS011;4375;52.486;13.424;2022-08-21T16:03:42;16.60;;;2.80;;
8675;SDS011;4375;52.486;13.424;2022-08-21T16:06:13;19.80;;;2.70;;
8675;SDS011;4375;52.486;13.424;2022-08-21T16:08:39;17.00;;;2.80;;
8675;SDS011;4375;52.486;13.424;2022-08-21T16:11:04;17.90;;;4.10;;
8675;SDS011;4375;52.486;13.424;2022-08-21T16:13:33;17.53;;;4.03;;
8675;SDS011;4375;52.486;13.424;2022-08-21T16:16:10;20.17;;;4.43;;
8675;SDS011;4375;52.486;13.424;2022-08-21T16:18:37;20.93;;;5.57;;
8675;SDS011;4375;52.486;13.424;2022-08-21T16:21:05;20.40;;;5.97;;
8675;SDS011;4375;52.486;13.424;2022-08-21T16:23:31;22.57;;;6.00;;
8675;SDS011;4375;52.486;13.424;2022-08-21T16:25:59;19.20;;;4.63;;
8675;SDS011;4375;52.486;13.424;2022-08-21T16:28:26;18.23;;;3.60;;
8675;SDS011;4375;52.486;13.424;2022-08-21T16:30:53;16.03;;;3.27;;
8675;SDS011;4375;52.486;13.424;2022-08-21T16:33:23;18.57;;;3.37;;
8675;SDS011;4375;52.486;13.424;2022-08-21T16:35:53;17.57;;;3.50;;